Time;durP1;ratioP1;P1;durP2;ratioP2;P2;SDS_P1;SDS_P2;PMS_P1;PMS_P2;Temp;Humidity;BMP_temperature;BMP_pressure;BME280_temperature;BME280_humidity;BME280_pressure;Samples;Min_cycle;Max_cycle;Signal;HPM_P1;HPM_P2
2022/12/17 13:06:36;;;;;;;83.28;37.70;;;-0.60;99.90;;;;;;5052279;28;20044;-48
2022/12/17 13:09:19;;;;;;;79.53;37.90;;;-0.60;99.90;;;;;;5051315;28;20098;-49
2022/12/17 13:11:53;;;;;;;86.80;40.13;;;-0.60;99.90;;;;;;5051466;28;20082;-49
2022/12/17 13:14:29;;;;;;;90.57;43.28;;;-0.60;99.90;;;;;;5050928;28;20041;-51
2022/12/17 13:17:00;;;;;;;84.07;38.72;;;-0.60;99.90;;;;;;5051671;28;20041;-49
2022/12/17 13:19:35;;;;;;;86.25;37.60;;;-0.70;99.90;;;;;;5050358;28;20049;-52
2022/12/17 13:22:14;;;;;;;85.57;37.97;;;-0.70;99.90;;;;;;5051325;28;20116;-51
2022/12/17 13:24:44;;;;;;;88.57;38.83;;;-0.80;99.90;;;;;;5050566;28;20505;-49
2022/12/17 13:27:38;;;;;;;90.07;37.33;;;-0.80;99.90;;;;;;5051525;28;20444;-52
2022/12/17 13:30:16;;;;;;;107.80;46.10;;;-0.80;99.90;;;;;;5049884;28;20477;-51
2022/12/17 13:32:54;;;;;;;94.10;38.50;;;-0.80;99.90;;;;;;5051403;28;20486;-49
2022/12/17 13:36:12;;;;;;;98.15;37.30;;;-0.90;99.90;;;;;;5051379;28;20167;-49
2022/12/17 13:39:01;;;;;;;98.28;42.70;;;-0.80;99.90;;;;;;5030121;28;20041;-52
2022/12/17 13:41:30;;;;;;;104.78;43.67;;;-0.90;99.90;;;;;;5009322;28;20590;-52
2022/12/17 13:44:00;;;;;;;93.40;35.15;;;-0.90;99.90;;;;;;5011659;28;20042;-53
2022/12/17 13:46:43;;;;;;;89.15;34.08;;;-0.90;99.90;;;;;;5029095;28;20045;-52
2022/12/17 13:49:21;;;;;;;100.22;38.63;;;-1.00;99.90;;;;;;5029068;28;20454;-51
2022/12/17 13:51:47;;;;;;;101.07;39.42;;;-1.00;99.90;;;;;;5029082;28;20042;-49
2022/12/17 13:54:16;;;;;;;96.35;36.42;;;-1.10;99.90;;;;;;5028645;28;20046;-49
2022/12/17 13:56:43;;;;;;;105.25;39.47;;;-1.10;99.90;;;;;;5038053;28;20095;-48
2022/12/17 13:59:20;;;;;;;101.28;36.92;;;-1.10;99.90;;;;;;5047721;28;20642;-50
2022/12/17 14:01:52;;;;;;;91.95;34.22;;;-1.20;99.90;;;;;;5028747;28;20053;-48
2022/12/17 14:04:23;;;;;;;94.72;34.08;;;-1.20;99.90;;;;;;5027660;28;20112;-49
2022/12/17 14:06:49;;;;;;;111.20;43.85;;;-1.30;99.90;;;;;;5029147;28;20057;-48
2022/12/17 14:09:17;;;;;;;112.97;40.75;;;-1.30;99.90;;;;;;5028965;28;20046;-52
2022/12/17 14:14:41;;;;;;;120.53;44.33;;;-1.40;99.90;;;;;;5050003;28;20060;-49
2022/12/17 14:17:20;;;;;;;128.05;42.70;;;-1.60;99.90;;;;;;5050111;28;20052;-49
2022/12/17 14:19:51;;;;;;;131.73;46.17;;;-1.40;99.90;;;;;;5050752;28;20049;-48
2022/12/17 14:22:32;;;;;;;118.05;37.40;;;-1.40;99.90;;;;;;5049700;28;20410;-49
2022/12/17 14:24:57;;;;;;;128.15;48.53;;;-1.50;99.90;;;;;;5048340;28;20233;-48
2022/12/17 14:27:29;;;;;;;121.32;42.92;;;-1.50;99.90;;;;;;5050532;28;20402;-49
2022/12/17 14:29:55;;;;;;;128.75;48.97;;;-1.50;99.90;;;;;;5050673;28;20063;-48
2022/12/17 14:32:24;;;;;;;130.07;46.60;;;-1.50;99.90;;;;;;5050322;28;20490;-51
2022/12/17 14:34:49;;;;;;;104.10;41.78;;;-1.60;99.90;;;;;;5049326;28;20509;-49
2022/12/17 14:37:18;;;;;;;126.03;40.53;;;-1.60;99.90;;;;;;5049564;28;20451;-52
2022/12/17 14:39:46;;;;;;;116.93;40.90;;;-1.60;99.90;;;;;;5050670;28;20298;-50
2022/12/17 14:42:31;;;;;;;110.78;39.70;;;-1.60;99.90;;;;;;5049985;28;20087;-51
2022/12/17 14:44:58;;;;;;;123.05;42.17;;;-1.60;99.90;;;;;;5049364;28;20413;-50
2022/12/17 14:47:27;;;;;;;118.03;44.83;;;-1.60;99.90;;;;;;5049159;28;20041;-50
2022/12/17 14:49:54;;;;;;;108.88;38.22;;;-1.60;99.90;;;;;;5050240;28;20591;-52
2022/12/17 14:52:35;;;;;;;121.10;45.72;;;-1.60;99.90;;;;;;5049876;28;20041;-51
2022/12/17 14:55:20;;;;;;;121.50;41.65;;;-1.70;99.90;;;;;;5048721;28;20433;-52
2022/12/17 14:57:48;;;;;;;103.40;35.88;;;-1.70;99.90;;;;;;5049185;28;20406;-52
2022/12/17 15:00:14;;;;;;;125.75;41.05;;;-1.70;99.90;;;;;;5050293;28;20068;-48
2022/12/17 15:02:41;;;;;;;133.20;43.97;;;-1.80;99.90;;;;;;5049348;28;20601;-53
2022/12/17 15:05:13;;;;;;;136.35;50.00;;;-1.80;99.90;;;;;;5049343;28;20037;-50
2022/12/17 15:07:39;;;;;;;128.05;47.55;;;-1.80;99.90;;;;;;5049198;28;20049;-52
2022/12/17 15:10:13;;;;;;;123.28;45.50;;;-1.80;99.90;;;;;;5049947;28;20403;-52
2022/12/17 15:12:41;;;;;;;131.25;45.72;;;-1.80;99.90;;;;;;5049467;28;20036;-52
2022/12/17 15:15:10;;;;;;;107.90;39.25;;;-1.80;99.90;;;;;;5049285;28;20052;-52
2022/12/17 15:17:36;;;;;;;117.97;42.05;;;-1.80;99.90;;;;;;5049359;28;20043;-52
2022/12/17 15:20:02;;;;;;;113.57;38.43;;;-1.80;99.90;;;;;;5048898;28;20115;-52
2022/12/17 15:22:27;;;;;;;109.03;40.30;;;-1.90;99.90;;;;;;5049016;28;20037;-48
2022/12/17 15:24:53;;;;;;;110.67;42.57;;;-1.90;99.90;;;;;;5048324;28;20560;-49
2022/12/17 15:27:19;;;;;;;122.10;46.67;;;-1.90;99.90;;;;;;5048794;28;20349;-49
2022/12/17 15:29:45;;;;;;;122.80;42.90;;;-1.90;99.90;;;;;;5065178;28;20055;-51
2022/12/17 15:32:18;;;;;;;112.82;42.42;;;-1.90;99.90;;;;;;5049248;28;20119;-51
2022/12/17 15:34:44;;;;;;;116.00;44.15;;;-1.90;99.90;;;;;;5048686;28;20036;-49
2022/12/17 15:37:10;;;;;;;112.90;42.13;;;-1.90;99.90;;;;;;5047322;28;20045;-49
2022/12/17 15:39:35;;;;;;;106.27;42.40;;;-1.90;99.90;;;;;;5049100;28;20048;-48
2022/12/17 15:44:45;;;;;;;105.63;42.60;;;-1.80;99.90;;;;;;5048277;28;20045;-50
2022/12/17 15:47:10;;;;;;;106.90;42.07;;;-1.80;99.90;;;;;;5048684;28;20049;-49
2022/12/17 15:49:36;;;;;;;102.50;41.40;;;-1.80;99.90;;;;;;5048792;28;20418;-49
2022/12/17 15:52:01;;;;;;;96.70;40.63;;;-1.80;99.90;;;;;;5048918;28;20398;-48
2022/12/17 15:54:27;;;;;;;107.47;45.50;;;-1.80;99.90;;;;;;5048092;28;20043;-48
2022/12/17 15:56:54;;;;;;;115.60;49.40;;;-1.80;99.90;;;;;;5047642;28;20029;-49
2022/12/17 15:59:20;;;;;;;104.60;41.95;;;-1.80;99.90;;;;;;5053277;28;20106;-49
2022/12/17 16:01:45;;;;;;;113.68;45.65;;;-1.80;99.90;;;;;;5048902;28;20033;-50
2022/12/17 16:04:11;;;;;;;92.73;39.17;;;-1.80;99.90;;;;;;5047705;28;20044;-52
2022/12/17 16:06:36;;;;;;;109.57;43.80;;;-1.80;99.90;;;;;;5048811;28;20477;-49
2022/12/17 16:09:02;;;;;;;95.97;40.37;;;-1.80;99.90;;;;;;5048619;28;20193;-52
2022/12/17 16:11:27;;;;;;;92.97;37.23;;;-1.90;99.90;;;;;;5048995;28;20025;-54
2022/12/17 16:13:54;;;;;;;101.50;46.53;;;-1.90;99.90;;;;;;5048010;28;20059;-51
2022/12/17 16:16:20;;;;;;;91.72;37.97;;;-1.90;99.90;;;;;;5048925;28;20091;-49
2022/12/17 16:18:46;;;;;;;103.97;47.28;;;-1.90;99.90;;;;;;5048768;28;20033;-53
2022/12/17 16:21:11;;;;;;;106.97;45.13;;;-1.90;99.90;;;;;;5048629;28;20493;-50
2022/12/17 16:23:37;;;;;;;102.57;45.90;;;-1.90;99.90;;;;;;5047691;28;20037;-48
2022/12/17 16:26:05;;;;;;;112.82;46.83;;;-1.90;99.90;;;;;;5048735;28;20498;-50
2022/12/17 16:28:31;;;;;;;110.80;46.78;;;-1.90;99.90;;;;;;5048064;28;20033;-54
2022/12/17 16:31:02;;;;;;;96.53;41.50;;;-1.90;99.90;;;;;;5047584;28;20037;-49
2022/12/17 16:33:35;;;;;;;110.72;47.92;;;-1.90;99.90;;;;;;5047562;28;20041;-53
2022/12/17 16:36:01;;;;;;;102.97;45.55;;;-1.90;99.90;;;;;;5051871;28;20071;-53
2022/12/17 16:38:27;;;;;;;107.05;48.15;;;-1.90;99.90;;;;;;5052077;28;20494;-52
2022/12/17 16:40:57;;;;;;;112.47;48.35;;;-1.90;99.90;;;;;;5047012;28;20041;-52
2022/12/17 16:43:23;;;;;;;108.90;48.75;;;-1.90;99.90;;;;;;5050459;28;20103;-53
2022/12/17 16:45:51;;;;;;;109.90;51.20;;;-1.90;99.90;;;;;;5051356;28;20047;-53
2022/12/17 16:48:18;;;;;;;116.03;53.00;;;-1.90;99.90;;;;;;5047592;28;20061;-52
2022/12/17 16:50:45;;;;;;;109.80;53.67;;;-1.90;99.90;;;;;;5050700;28;20120;-54
2022/12/17 16:53:11;;;;;;;111.68;52.05;;;-1.90;99.90;;;;;;5046143;28;20517;-53
2022/12/17 16:55:41;;;;;;;117.57;51.05;;;-1.90;99.90;;;;;;5049471;28;20041;-50
2022/12/17 16:58:07;;;;;;;112.47;51.40;;;-1.90;99.90;;;;;;5049463;28;20029;-50
2022/12/17 17:00:33;;;;;;;109.47;48.67;;;-1.90;99.90;;;;;;5051527;28;20075;-52
2022/12/17 17:02:59;;;;;;;120.00;50.90;;;-1.90;99.90;;;;;;5048897;28;20505;-49
2022/12/17 17:05:25;;;;;;;117.25;53.97;;;-1.90;99.90;;;;;;5050493;28;20121;-49
2022/12/17 17:07:50;;;;;;;107.33;51.07;;;-1.90;99.90;;;;;;5051008;28;20072;-48
2022/12/17 17:10:16;;;;;;;122.73;53.67;;;-1.90;99.90;;;;;;5049775;28;20063;-49
2022/12/17 17:12:42;;;;;;;115.68;54.47;;;-2.00;99.90;;;;;;5050138;28;20063;-51
2022/12/17 17:15:08;;;;;;;117.03;53.37;;;-1.90;99.90;;;;;;5049144;28;20083;-49
2022/12/17 17:17:34;;;;;;;117.60;55.38;;;-1.90;99.90;;;;;;5050029;28;20072;-53
2022/12/17 17:19:59;;;;;;;116.70;51.87;;;-1.90;99.90;;;;;;5051487;28;20075;-48
2022/12/17 17:22:25;;;;;;;114.60;50.90;;;-1.90;99.90;;;;;;5048056;28;20591;-50
2022/12/17 17:24:50;;;;;;;114.83;52.00;;;-2.00;99.90;;;;;;5050091;28;20033;-50
2022/12/17 17:27:16;;;;;;;107.93;53.00;;;-2.00;99.90;;;;;;5051016;28;20083;-49
2022/12/17 17:29:41;;;;;;;113.83;53.73;;;-2.00;99.90;;;;;;5051101;28;20037;-50
2022/12/17 17:32:07;;;;;;;116.53;54.20;;;-2.00;99.90;;;;;;5051576;28;20082;-51
2022/12/17 17:34:32;;;;;;;121.50;57.97;;;-2.00;99.90;;;;;;5050468;28;20037;-50
2022/12/17 17:36:58;;;;;;;118.03;53.97;;;-2.00;99.90;;;;;;5051193;28;20040;-49
2022/12/17 17:39:24;;;;;;;118.40;54.22;;;-2.00;99.90;;;;;;5050837;28;20037;-51
2022/12/17 17:41:50;;;;;;;128.75;57.22;;;-2.00;99.90;;;;;;5049287;28;20402;-52
2022/12/17 17:44:16;;;;;;;129.68;56.88;;;-1.90;99.90;;;;;;5049506;28;20045;-50
2022/12/17 17:46:41;;;;;;;137.77;59.80;;;-1.90;99.90;;;;;;5050234;28;20036;-50
2022/12/17 17:49:08;;;;;;;123.47;54.77;;;-1.90;99.90;;;;;;5050785;28;20044;-49
2022/12/17 17:51:37;;;;;;;115.32;51.30;;;-1.90;99.90;;;;;;5050374;28;20029;-52
2022/12/17 17:54:03;;;;;;;104.63;46.35;;;-2.00;99.90;;;;;;5048762;28;20048;-54
2022/12/17 17:56:30;;;;;;;;;;;-2.00;99.90;;;;;;5048682;28;20130;-51
2022/12/17 17:59:01;;;;;;;112.27;52.27;;;-2.10;99.90;;;;;;5050625;28;19981;-52
2022/12/17 18:01:30;;;;;;;137.30;60.30;;;-2.10;99.90;;;;;;5047719;28;20409;-53
2022/12/17 18:03:58;;;;;;;126.40;55.15;;;-2.10;99.90;;;;;;5049932;28;20044;-53
2022/12/17 18:06:25;;;;;;;116.95;50.42;;;-2.10;99.90;;;;;;5050584;28;20045;-53
2022/12/17 18:08:51;;;;;;;124.20;54.75;;;-2.20;99.90;;;;;;5050185;28;20036;-53
2022/12/17 18:11:18;;;;;;;128.77;56.47;;;-2.20;99.90;;;;;;5049275;28;20040;-52
2022/12/17 18:13:53;;;;;;;137.30;59.30;;;-2.20;99.90;;;;;;5049278;28;20268;-53
2022/12/17 18:16:27;;;;;;;122.63;55.90;;;-2.20;99.90;;;;;;5050660;28;20402;-53
2022/12/17 18:18:59;;;;;;;127.10;56.33;;;-2.20;99.90;;;;;;5050425;28;20036;-53
2022/12/17 18:21:26;;;;;;;139.70;60.13;;;-2.10;99.90;;;;;;5047553;28;20052;-50
2022/12/17 18:24:00;;;;;;;134.02;57.08;;;-2.10;99.90;;;;;;5049243;28;20048;-48
2022/12/17 18:26:30;;;;;;;150.65;63.78;;;-2.10;99.90;;;;;;5050063;28;20033;-53
2022/12/17 18:29:01;;;;;;;144.25;59.75;;;-2.10;99.90;;;;;;5036643;28;20033;-49
2022/12/17 18:31:28;;;;;;;148.05;66.00;;;-2.10;99.90;;;;;;5049699;28;20045;-49
2022/12/17 18:34:01;;;;;;;141.48;61.05;;;-2.10;99.90;;;;;;5049289;28;20029;-51
2022/12/17 18:36:34;;;;;;;151.07;61.90;;;-2.20;99.90;;;;;;5049572;28;20052;-50
2022/12/17 18:39:03;;;;;;;143.45;55.90;;;-2.20;99.90;;;;;;5049800;28;20045;-49
2022/12/17 18:44:14;;;;;;;165.18;71.35;;;-2.20;99.90;;;;;;5035980;28;20403;-49
2022/12/17 18:46:39;;;;;;;;;;;-2.20;99.90;;;;;;5048849;28;20049;-49
2022/12/17 18:49:08;;;;;;;151.00;61.15;;;-2.20;99.90;;;;;;5048955;28;20274;-49
2022/12/17 18:51:36;;;;;;;150.88;64.63;;;-2.30;99.90;;;;;;5049738;28;20039;-51
2022/12/17 18:54:03;;;;;;;144.10;57.53;;;-2.30;99.90;;;;;;5048721;28;20045;-50
2022/12/17 18:56:29;;;;;;;139.32;56.00;;;-2.30;99.90;;;;;;5047629;28;20384;-50
2022/12/17 18:58:55;;;;;;;117.53;49.23;;;-2.30;99.90;;;;;;5049568;28;20063;-50
2022/12/17 19:01:28;;;;;;;;;;;-2.30;99.90;;;;;;5050162;28;20044;-49
2022/12/17 19:03:54;;;;;;;132.32;52.35;;;-2.30;99.90;;;;;;5048210;28;19955;-49
2022/12/17 19:06:21;;;;;;;134.17;53.50;;;-2.40;99.90;;;;;;5033682;28;20467;-49
2022/12/17 19:08:47;;;;;;;138.85;56.53;;;-2.40;99.90;;;;;;5039992;28;20041;-53
2022/12/17 19:11:15;;;;;;;136.43;57.75;;;-2.30;99.90;;;;;;5039515;28;20033;-51
2022/12/17 19:13:41;;;;;;;125.60;50.58;;;-2.30;99.90;;;;;;5048058;28;20037;-53
2022/12/17 19:16:13;;;;;;;129.07;50.67;;;-2.30;99.90;;;;;;5044149;28;20521;-49
2022/12/17 19:18:40;;;;;;;130.00;52.28;;;-2.40;99.90;;;;;;5045279;28;20083;-53
2022/12/17 19:21:08;;;;;;;140.73;60.03;;;-2.40;99.90;;;;;;5048208;28;20521;-52
2022/12/17 19:23:34;;;;;;;155.23;63.60;;;-2.40;99.90;;;;;;5047487;28;20079;-50
2022/12/17 19:26:13;;;;;;;155.73;62.93;;;-2.40;99.90;;;;;;5049303;28;20037;-51
2022/12/17 19:28:39;;;;;;;144.82;64.68;;;-2.40;99.90;;;;;;5048134;28;20040;-50
2022/12/17 19:31:05;;;;;;;142.68;62.97;;;-2.40;99.90;;;;;;5047853;28;20098;-53
2022/12/17 19:33:31;;;;;;;161.95;67.22;;;-2.40;99.90;;;;;;5047006;28;20490;-49
2022/12/17 19:36:01;;;;;;;165.87;65.57;;;-2.50;99.90;;;;;;5049235;28;20040;-53
2022/12/17 19:38:27;;;;;;;135.27;51.78;;;-2.50;99.90;;;;;;5048208;28;20075;-52
2022/12/17 19:40:52;;;;;;;158.67;58.60;;;-2.50;99.90;;;;;;5049353;28;20395;-53
2022/12/17 19:43:18;;;;;;;139.60;53.03;;;-2.60;99.90;;;;;;5047353;28;20448;-53
2022/12/17 19:45:43;;;;;;;151.20;62.37;;;-2.60;99.90;;;;;;5049302;28;20037;-53
2022/12/17 19:48:13;;;;;;;150.50;57.00;;;-2.60;99.90;;;;;;5046721;28;20098;-49
2022/12/17 19:50:39;;;;;;;161.50;61.13;;;-2.60;99.90;;;;;;5048149;28;20353;-49
2022/12/17 19:53:04;;;;;;;148.85;57.97;;;-2.70;99.90;;;;;;5048326;28;20032;-50
2022/12/17 19:55:30;;;;;;;141.80;58.37;;;-2.70;99.90;;;;;;5036440;28;20052;-49
2022/12/17 19:57:55;;;;;;;137.37;55.53;;;-2.70;99.90;;;;;;5048042;28;20124;-50
2022/12/17 20:00:21;;;;;;;158.83;65.27;;;-2.70;99.90;;;;;;5048628;28;20036;-49
2022/12/17 20:02:47;;;;;;;139.20;57.13;;;-2.70;99.90;;;;;;5045567;28;20099;-52
2022/12/17 20:05:12;;;;;;;137.47;54.37;;;-2.70;99.90;;;;;;5042134;28;20044;-49
2022/12/17 20:07:39;;;;;;;158.13;59.73;;;-2.70;99.90;;;;;;5048743;28;20438;-49
2022/12/17 20:10:04;;;;;;;;;;;-2.70;99.90;;;;;;5052591;28;20132;-49
2022/12/17 20:12:30;;;;;;;139.55;55.35;;;-2.70;99.90;;;;;;5053001;28;20043;-49
2022/12/17 20:14:56;;;;;;;136.87;53.80;;;-2.70;99.90;;;;;;5050162;28;20040;-51
2022/12/17 20:17:21;;;;;;;145.23;56.53;;;-2.70;99.90;;;;;;5034002;28;20038;-51
2022/12/17 20:19:48;;;;;;;140.40;56.72;;;-2.70;99.90;;;;;;5045763;28;20041;-50
2022/12/17 20:22:13;;;;;;;149.68;57.88;;;-2.70;99.90;;;;;;5047251;28;20041;-50
2022/12/17 20:24:39;;;;;;;172.27;60.87;;;-2.70;99.90;;;;;;5046875;28;20045;-49
2022/12/17 20:27:05;;;;;;;160.07;59.17;;;-2.70;99.90;;;;;;5052027;28;20033;-50
2022/12/17 20:29:30;;;;;;;162.95;60.20;;;-2.70;99.90;;;;;;5052395;28;20579;-52
2022/12/17 20:31:56;;;;;;;159.10;57.93;;;-2.70;99.90;;;;;;5051351;28;20068;-50
2022/12/17 20:34:23;;;;;;;178.63;70.72;;;-2.70;99.90;;;;;;5050823;28;20037;-49
2022/12/17 20:36:50;;;;;;;154.35;57.30;;;-2.70;99.90;;;;;;5052467;28;20225;-49
2022/12/17 20:39:16;;;;;;;168.23;59.42;;;-2.80;99.90;;;;;;5052091;28;20036;-51
2022/12/17 20:41:43;;;;;;;130.75;48.88;;;-2.80;99.90;;;;;;5052358;28;20133;-53
2022/12/17 20:44:12;;;;;;;136.77;55.17;;;-2.80;99.90;;;;;;5050310;28;20051;-52
2022/12/17 20:46:40;;;;;;;149.50;54.42;;;-2.80;99.90;;;;;;5050924;28;20033;-52
2022/12/17 20:49:06;;;;;;;163.63;63.17;;;-2.80;99.90;;;;;;5050654;28;20045;-50
2022/12/17 20:51:32;;;;;;;157.93;55.15;;;-2.90;99.90;;;;;;5051122;28;20667;-52
2022/12/17 20:54:00;;;;;;;151.85;57.20;;;-2.90;99.90;;;;;;5048685;28;20119;-49
2022/12/17 20:56:31;;;;;;;163.93;56.85;;;-2.90;99.90;;;;;;5049580;28;20028;-53
2022/12/17 20:58:59;;;;;;;170.80;62.22;;;-2.90;99.90;;;;;;5046175;28;20045;-52
2022/12/17 21:01:26;;;;;;;173.35;62.65;;;-2.80;99.90;;;;;;5047622;28;20051;-53
2022/12/17 21:03:53;;;;;;;176.85;63.78;;;-2.80;99.90;;;;;;5049307;28;20246;-53
2022/12/17 21:06:25;;;;;;;154.07;58.47;;;-2.80;99.90;;;;;;5050024;28;20037;-52
2022/12/17 21:08:53;;;;;;;175.52;58.20;;;-2.80;99.90;;;;;;5050264;28;20032;-54
2022/12/17 21:11:21;;;;;;;173.98;59.70;;;-2.80;99.90;;;;;;5049274;28;20041;-53
2022/12/17 21:13:47;;;;;;;156.65;56.05;;;-2.80;99.90;;;;;;5049273;28;20532;-49
2022/12/17 21:16:23;;;;;;;181.98;66.32;;;-2.80;99.90;;;;;;5050202;28;20028;-49
2022/12/17 21:18:57;;;;;;;169.40;62.20;;;-2.80;99.90;;;;;;5050171;28;20116;-51
2022/12/17 21:21:25;;;;;;;162.95;59.50;;;-2.80;99.90;;;;;;5047679;28;20390;-49
2022/12/17 21:23:51;;;;;;;210.07;69.30;;;-2.90;99.90;;;;;;5049069;28;20551;-49
2022/12/17 21:26:22;;;;;;;195.35;64.65;;;-2.80;99.90;;;;;;5049614;28;20091;-49
2022/12/17 21:28:51;;;;;;;232.43;72.90;;;-2.90;99.90;;;;;;5049846;28;20130;-49
2022/12/17 21:31:23;;;;;;;208.60;66.07;;;-2.90;99.90;;;;;;5049068;28;20045;-50
2022/12/17 21:33:50;;;;;;;206.68;64.80;;;-2.90;99.90;;;;;;5046327;28;20395;-49
2022/12/17 21:36:18;;;;;;;199.38;62.25;;;-2.90;99.90;;;;;;5032346;28;20029;-49
2022/12/17 21:38:45;;;;;;;222.93;70.22;;;-2.90;99.90;;;;;;5049125;28;20419;-50
2022/12/17 21:41:13;;;;;;;193.60;64.07;;;-2.90;99.90;;;;;;5050103;28;20059;-50
2022/12/17 21:43:39;;;;;;;231.05;80.35;;;-3.00;99.90;;;;;;5047194;28;20119;-49
2022/12/17 21:46:06;;;;;;;177.13;58.75;;;-3.00;99.90;;;;;;5050320;28;20037;-50
2022/12/17 21:48:33;;;;;;;217.45;73.35;;;-3.00;99.90;;;;;;5049904;28;20490;-50
2022/12/17 21:50:58;;;;;;;198.30;58.35;;;-3.00;99.90;;;;;;5049899;28;20536;-49
2022/12/17 21:53:24;;;;;;;197.27;63.43;;;-3.10;99.90;;;;;;5045993;28;20068;-51
2022/12/17 21:55:50;;;;;;;207.03;60.70;;;-3.10;99.90;;;;;;5050177;28;20307;-49
2022/12/17 21:58:15;;;;;;;182.30;55.73;;;-3.10;99.90;;;;;;5049391;28;20386;-50
2022/12/17 22:00:41;;;;;;;185.27;56.80;;;-3.10;99.90;;;;;;5049915;28;20033;-50
2022/12/17 22:03:07;;;;;;;160.35;52.55;;;-3.20;99.90;;;;;;5046077;28;20514;-51
2022/12/17 22:05:36;;;;;;;163.73;53.60;;;-3.30;99.90;;;;;;5047149;28;20067;-53
2022/12/17 22:08:03;;;;;;;161.00;54.08;;;-3.40;99.90;;;;;;5048348;28;20028;-51
2022/12/17 22:10:28;;;;;;;;;;;-3.40;99.90;;;;;;5041838;28;20086;-49
2022/12/17 22:15:39;;;;;;;157.95;52.25;;;-3.40;99.90;;;;;;5049462;28;20033;-52
2022/12/17 22:18:04;;;;;;;158.50;53.38;;;-3.50;99.90;;;;;;5048947;28;20037;-53
2022/12/17 22:20:30;;;;;;;169.20;57.50;;;-3.50;99.90;;;;;;5049649;28;20529;-50
2022/12/17 22:22:56;;;;;;;190.67;61.37;;;-3.50;99.90;;;;;;5046057;28;20048;-49
2022/12/17 22:25:21;;;;;;;180.33;58.47;;;-3.50;99.90;;;;;;5049108;28;20090;-53
2022/12/17 22:27:47;;;;;;;180.57;62.03;;;-3.50;99.90;;;;;;5047348;28;20087;-53
2022/12/17 22:33:04;;;;;;;165.95;55.58;;;-3.40;99.90;;;;;;5047457;28;20067;-52
2022/12/17 22:35:49;;;;;;;162.55;53.40;;;-3.40;99.90;;;;;;5047858;28;20520;-53
2022/12/17 22:38:14;;;;;;;150.88;48.85;;;-3.40;99.90;;;;;;5048924;28;20748;-53
2022/12/17 22:40:40;;;;;;;155.57;49.37;;;-3.40;99.90;;;;;;5046439;28;20120;-49
2022/12/17 22:45:50;;;;;;;134.90;51.08;;;-3.40;99.90;;;;;;5048250;28;20037;-49
2022/12/17 22:48:16;;;;;;;151.03;52.60;;;-3.50;99.90;;;;;;5047308;28;20041;-48
2022/12/17 22:50:42;;;;;;;142.43;49.83;;;-3.50;99.90;;;;;;5048529;28;20036;-50
2022/12/17 22:53:08;;;;;;;156.00;58.28;;;-3.50;99.90;;;;;;5047914;28;20422;-49
2022/12/17 22:55:34;;;;;;;158.57;56.20;;;-3.50;99.90;;;;;;5048382;28;20033;-49
2022/12/17 22:58:00;;;;;;;154.38;57.20;;;-3.50;99.90;;;;;;5048061;28;20037;-52
2022/12/17 23:00:30;;;;;;;146.47;52.10;;;-3.50;99.90;;;;;;5047768;28;20044;-52
2022/12/17 23:02:56;;;;;;;142.60;50.75;;;-3.50;99.90;;;;;;5046408;28;20127;-50
2022/12/17 23:05:23;;;;;;;135.53;51.80;;;-3.50;99.90;;;;;;5047322;28;20160;-49
2022/12/17 23:07:49;;;;;;;132.90;52.72;;;-3.50;99.90;;;;;;5046238;28;20033;-49
2022/12/17 23:10:15;;;;;;;144.88;52.85;;;-3.60;99.90;;;;;;5045837;28;20422;-49
2022/12/17 23:12:50;;;;;;;132.82;50.63;;;-3.50;99.90;;;;;;5047587;28;20051;-51
2022/12/17 23:15:45;;;;;;;148.00;53.15;;;-3.60;99.90;;;;;;5047467;28;20044;-50
2022/12/17 23:18:11;;;;;;;139.80;51.60;;;-3.50;99.90;;;;;;5038748;28;20075;-51
2022/12/17 23:20:36;;;;;;;143.40;56.97;;;-3.50;99.90;;;;;;5048219;28;20154;-49
2022/12/17 23:23:02;;;;;;;160.43;57.83;;;-3.50;99.90;;;;;;5046978;28;20064;-49
2022/12/17 23:25:28;;;;;;;144.33;56.83;;;-3.50;99.90;;;;;;5048494;28;20041;-49
2022/12/17 23:27:53;;;;;;;151.63;60.80;;;-3.40;99.90;;;;;;5045723;28;20037;-49
2022/12/17 23:30:19;;;;;;;155.43;58.53;;;-3.50;99.90;;;;;;5045740;28;20048;-50
2022/12/17 23:32:45;;;;;;;146.73;54.53;;;-3.50;99.90;;;;;;5046823;28;20033;-52
2022/12/17 23:35:12;;;;;;;149.93;58.88;;;-3.50;99.90;;;;;;5047289;28;20090;-50
2022/12/17 23:37:39;;;;;;;;;;;-3.50;99.90;;;;;;5047595;28;20045;-50
2022/12/17 23:40:25;;;;;;;135.00;53.37;;;-3.50;99.90;;;;;;5046928;28;19939;-54
2022/12/17 23:42:50;;;;;;;144.82;55.08;;;-3.50;99.90;;;;;;5047281;28;20056;-53
2022/12/17 23:45:16;;;;;;;135.67;50.20;;;-3.50;99.90;;;;;;5047540;28;20398;-50
2022/12/17 23:47:42;;;;;;;129.43;48.57;;;-3.60;99.90;;;;;;5047677;28;20265;-50
2022/12/17 23:50:08;;;;;;;137.77;53.40;;;-3.60;99.90;;;;;;5046898;28;20497;-53
2022/12/17 23:52:34;;;;;;;130.52;50.58;;;-3.60;99.90;;;;;;5047615;28;20410;-52
2022/12/17 23:55:00;;;;;;;138.80;54.53;;;-3.70;99.90;;;;;;5045975;28;20025;-54
2022/12/17 23:57:25;;;;;;;125.50;51.63;;;-3.60;99.90;;;;;;5047145;28;20048;-51
2022/12/17 23:59:51;;;;;;;145.40;56.57;;;-3.70;99.90;;;;;;5047595;28;20036;-54
